createdAt,value
2023-05-09T00:00:08.580Z,42.08
2023-05-09T00:01:08.679Z,42.08
2023-05-09T00:02:08.764Z,42.11
2023-05-09T00:03:08.837Z,42.06
2023-05-09T00:04:08.850Z,42.11
2023-05-09T00:05:08.964Z,42.08
2023-05-09T00:06:08.900Z,42.08
2023-05-09T00:07:08.981Z,42.10
2023-05-09T00:08:09.061Z,42.09
2023-05-09T00:09:09.077Z,42.05
2023-05-09T00:10:09.114Z,42.07
2023-05-09T00:11:09.166Z,42.09
2023-05-09T00:12:09.233Z,42.07
2023-05-09T00:13:09.312Z,42.03
2023-05-09T00:14:09.345Z,42.06
2023-05-09T00:15:09.405Z,42.05
2023-05-09T00:16:09.494Z,42.05
2023-05-09T00:17:09.519Z,42.05
2023-05-09T00:18:09.560Z,42.03
2023-05-09T00:19:09.608Z,42.03
2023-05-09T00:20:09.666Z,42.01
2023-05-09T00:21:09.797Z,42.06
2023-05-09T00:22:09.772Z,42.02
2023-05-09T00:23:09.842Z,42.03
2023-05-09T00:24:09.972Z,42.04
2023-05-09T00:25:09.946Z,42.02
2023-05-09T00:26:10.016Z,42.02
2023-05-09T00:27:10.100Z,42.02
2023-05-09T00:28:10.163Z,42.03
2023-05-09T00:29:10.202Z,42.03
2023-05-09T00:30:10.237Z,42.00
2023-05-09T00:31:10.284Z,41.99
2023-05-09T00:32:10.445Z,41.99
2023-05-09T00:33:10.487Z,42.02
2023-05-09T00:34:10.469Z,41.99
2023-05-09T00:35:10.518Z,42.01
2023-05-09T00:36:10.576Z,41.97
2023-05-09T00:37:10.728Z,41.98
2023-05-09T00:38:10.684Z,41.99
2023-05-09T00:39:10.775Z,42.01
2023-05-09T00:40:10.804Z,41.99
2023-05-09T00:41:10.820Z,41.98
2023-05-09T00:42:10.928Z,42.00
2023-05-09T00:43:10.972Z,41.97
2023-05-09T00:44:10.989Z,42.00
2023-05-09T00:45:11.121Z,42.01
2023-05-09T00:46:11.134Z,41.99
2023-05-09T00:47:11.202Z,42.02
2023-05-09T00:48:11.270Z,41.99
2023-05-09T00:49:11.292Z,41.96
2023-05-09T00:50:11.382Z,41.94
2023-05-09T00:51:11.409Z,41.94
2023-05-09T00:52:11.481Z,41.92
2023-05-09T00:53:11.614Z,41.95
2023-05-09T00:54:11.587Z,41.96
2023-05-09T00:55:11.746Z,41.95
2023-05-09T00:56:11.692Z,41.92
2023-05-09T00:57:11.756Z,41.93
2023-05-09T00:58:11.820Z,41.93
2023-05-09T00:59:11.860Z,41.90
2023-05-09T01:00:11.936Z,41.96
2023-05-09T01:01:12.046Z,41.92
2023-05-09T01:02:12.055Z,41.92
2023-05-09T01:03:12.231Z,41.93
2023-05-09T01:04:12.171Z,41.92
2023-05-09T01:05:12.396Z,41.91
2023-05-09T01:06:12.294Z,41.89
2023-05-09T01:07:12.317Z,41.90
2023-05-09T01:08:12.412Z,41.89
2023-05-09T01:09:12.606Z,41.93
2023-05-09T01:10:12.519Z,41.91
2023-05-09T01:11:12.560Z,41.92
2023-05-09T01:12:12.635Z,41.86
2023-05-09T01:13:12.730Z,41.89
2023-05-09T01:14:12.771Z,41.89
2023-05-09T01:15:13.022Z,41.91
2023-05-09T01:16:12.915Z,41.90
2023-05-09T01:17:12.955Z,41.91
2023-05-09T01:18:13.044Z,41.89
2023-05-09T01:19:13.028Z,41.88
2023-05-09T01:20:13.162Z,41.90
2023-05-09T01:21:13.188Z,41.89
2023-05-09T01:22:13.236Z,41.89
2023-05-09T01:23:13.297Z,41.85
2023-05-09T01:24:13.340Z,41.88
2023-05-09T01:25:13.776Z,41.86
2023-05-09T01:26:13.489Z,41.83
2023-05-09T01:27:13.524Z,41.85
2023-05-09T01:28:13.660Z,41.90
2023-05-09T01:29:13.641Z,41.85
2023-05-09T01:30:13.675Z,41.83
2023-05-09T01:31:13.837Z,41.86
2023-05-09T01:32:13.917Z,41.85
2023-05-09T01:33:13.872Z,41.84
2023-05-09T01:34:13.941Z,41.83
2023-05-09T01:35:14.257Z,41.84
2023-05-09T01:36:14.039Z,41.84
2023-05-09T01:37:14.155Z,41.83
2023-05-09T01:38:14.202Z,41.83
2023-05-09T01:39:14.233Z,41.80
2023-05-09T01:40:14.287Z,41.82
2023-05-09T01:41:14.448Z,41.82
2023-05-09T01:42:14.403Z,41.80
2023-05-09T01:43:14.502Z,41.82
2023-05-09T01:44:14.591Z,41.81
2023-05-09T01:45:14.894Z,41.82
2023-05-09T01:46:14.686Z,41.80
2023-05-09T01:47:14.714Z,41.78
2023-05-09T01:48:14.857Z,41.83
2023-05-09T01:49:14.829Z,41.83
2023-05-09T01:50:14.912Z,41.80
2023-05-09T01:51:14.995Z,41.81
2023-05-09T01:52:15.024Z,41.82
2023-05-09T01:53:15.076Z,41.78
2023-05-09T01:54:15.154Z,41.78
2023-05-09T01:55:15.351Z,41.80
2023-05-09T01:56:15.244Z,41.80
2023-05-09T01:57:15.408Z,41.77
2023-05-09T01:58:15.376Z,41.78
2023-05-09T01:59:15.407Z,41.77
2023-05-09T02:00:15.466Z,41.76
2023-05-09T02:01:15.634Z,41.78
2023-05-09T02:02:15.612Z,41.78
2023-05-09T02:03:15.697Z,41.79
2023-05-09T02:04:15.736Z,41.77
2023-05-09T02:05:15.994Z,41.78
2023-05-09T02:06:15.832Z,41.77
2023-05-09T02:07:15.878Z,41.78
2023-05-09T02:08:15.921Z,41.80
2023-05-09T02:09:15.974Z,41.75
2023-05-09T02:10:16.053Z,41.76
2023-05-09T02:11:16.130Z,41.78
2023-05-09T02:12:16.172Z,41.74
2023-05-09T02:13:16.358Z,41.76
2023-05-09T02:14:16.278Z,41.76
2023-05-09T02:15:16.568Z,41.72
2023-05-09T02:16:16.386Z,41.73
2023-05-09T02:17:16.473Z,41.76
2023-05-09T02:18:16.508Z,41.76
2023-05-09T02:19:16.557Z,41.76
2023-05-09T02:20:16.642Z,41.72
2023-05-09T02:21:16.725Z,41.76
2023-05-09T02:22:16.747Z,41.76
2023-05-09T02:23:16.827Z,41.77
2023-05-09T02:24:16.862Z,41.74
2023-05-09T02:25:17.020Z,41.75
2023-05-09T02:26:16.982Z,41.72
2023-05-09T02:27:17.046Z,41.74
2023-05-09T02:28:17.106Z,41.75
2023-05-09T02:29:17.769Z,41.75
2023-05-09T02:30:17.211Z,41.74
2023-05-09T02:31:17.254Z,41.72
2023-05-09T02:32:17.390Z,41.73
2023-05-09T02:33:17.397Z,41.71
2023-05-09T02:34:17.427Z,41.71
2023-05-09T02:35:17.499Z,41.70
2023-05-09T02:36:17.564Z,41.73
2023-05-09T02:37:17.615Z,41.69
2023-05-09T02:38:17.673Z,41.70
2023-05-09T02:39:17.760Z,41.69
2023-05-09T02:40:17.818Z,41.72
2023-05-09T02:41:17.845Z,41.73
2023-05-09T02:42:17.905Z,41.72
2023-05-09T02:43:17.957Z,41.75
2023-05-09T02:44:18.013Z,41.75
2023-05-09T02:45:18.150Z,41.69
2023-05-09T02:46:18.141Z,41.73
2023-05-09T02:47:18.136Z,41.74
2023-05-09T02:48:18.229Z,41.70
2023-05-09T02:49:31.356Z,41.70
2023-05-09T02:50:19.273Z,41.70
2023-05-09T02:51:18.271Z,41.73
2023-05-09T02:52:18.247Z,41.70
2023-05-09T02:53:18.260Z,41.70
2023-05-09T02:54:18.253Z,41.71
2023-05-09T02:55:18.233Z,41.69
2023-05-09T02:56:18.207Z,41.67
2023-05-09T02:57:18.228Z,41.70
2023-05-09T02:58:18.195Z,41.68
2023-05-09T02:59:18.210Z,41.68
2023-05-09T03:00:18.278Z,41.65
2023-05-09T03:01:18.319Z,41.67
2023-05-09T03:02:18.366Z,41.70
2023-05-09T03:03:18.616Z,41.71
2023-05-09T03:04:18.516Z,41.67
2023-05-09T03:05:18.554Z,41.70
2023-05-09T03:06:18.658Z,41.68
2023-05-09T03:07:18.685Z,41.69
2023-05-09T03:08:18.737Z,41.69
2023-05-09T03:09:18.798Z,41.65
2023-05-09T03:10:18.858Z,41.69
2023-05-09T03:11:18.933Z,41.69
2023-05-09T03:12:18.961Z,41.66
2023-05-09T03:13:19.106Z,41.68
2023-05-09T03:14:19.100Z,41.69
2023-05-09T03:15:19.147Z,41.68
2023-05-09T03:16:19.241Z,41.68
2023-05-09T03:17:19.377Z,41.65
2023-05-09T03:18:19.323Z,41.68
2023-05-09T03:19:19.398Z,41.65
2023-05-09T03:20:19.495Z,41.64
2023-05-09T03:21:19.503Z,41.66
2023-05-09T03:22:19.583Z,41.67
2023-05-09T03:23:19.639Z,41.67
2023-05-09T03:24:19.678Z,41.64
2023-05-09T03:25:19.772Z,41.67
2023-05-09T03:26:19.831Z,41.66
2023-05-09T03:27:19.873Z,41.66
2023-05-09T03:28:19.919Z,41.64
2023-05-09T03:29:19.995Z,41.67
2023-05-09T03:30:20.054Z,41.65
2023-05-09T03:31:20.136Z,41.64
2023-05-09T03:32:20.129Z,41.66
2023-05-09T03:33:20.309Z,41.65
2023-05-09T03:34:20.285Z,41.64
2023-05-09T03:35:20.321Z,41.65
2023-05-09T03:36:20.386Z,41.65
2023-05-09T03:37:20.445Z,41.65
2023-05-09T03:38:20.526Z,41.62
2023-05-09T03:39:20.535Z,41.63
2023-05-09T03:40:20.529Z,41.64
2023-05-09T03:41:20.538Z,41.63
2023-05-09T03:42:20.570Z,41.63
2023-05-09T03:43:20.653Z,41.64
2023-05-09T03:44:20.709Z,41.66
2023-05-09T03:45:20.729Z,41.64
2023-05-09T03:46:20.830Z,41.67
2023-05-09T03:47:20.856Z,41.65
2023-05-09T03:48:20.893Z,41.64
2023-05-09T03:49:21.042Z,41.65
2023-05-09T03:50:20.963Z,41.65
2023-05-09T03:51:21.018Z,41.60
2023-05-09T03:52:21.161Z,41.60
2023-05-09T03:53:21.130Z,41.63
2023-05-09T03:54:21.189Z,41.63
2023-05-09T03:55:21.247Z,41.62
2023-05-09T03:56:21.268Z,41.59
2023-05-09T03:57:21.321Z,41.62
2023-05-09T03:58:21.361Z,41.64
2023-05-09T03:59:21.394Z,41.64
2023-05-09T04:00:21.447Z,41.63
2023-05-09T04:01:21.506Z,41.64
2023-05-09T04:02:21.553Z,41.62
2023-05-09T04:03:21.678Z,41.64
2023-05-09T04:04:21.625Z,41.62
2023-05-09T04:05:21.773Z,41.60
2023-05-09T04:06:21.747Z,41.62
2023-05-09T04:07:21.770Z,41.62
2023-05-09T04:08:21.825Z,41.64
2023-05-09T04:09:21.874Z,41.64
2023-05-09T04:10:21.915Z,41.61
2023-05-09T04:11:21.937Z,41.65
2023-05-09T04:12:22.012Z,41.59
2023-05-09T04:13:22.128Z,41.60
2023-05-09T04:14:22.073Z,41.63
2023-05-09T04:15:22.213Z,41.64
2023-05-09T04:16:22.190Z,41.63
2023-05-09T04:17:22.251Z,41.64
2023-05-09T04:18:22.320Z,41.63
2023-05-09T04:19:22.349Z,41.63
2023-05-09T04:20:22.473Z,41.64
2023-05-09T04:21:22.526Z,41.64
2023-05-09T04:22:22.504Z,41.62
2023-05-09T04:23:22.526Z,41.63
2023-05-09T04:24:22.596Z,41.62
2023-05-09T04:25:22.683Z,41.63
2023-05-09T04:26:22.790Z,41.63
2023-05-09T04:27:22.728Z,41.63
2023-05-09T04:28:22.816Z,41.62
2023-05-09T04:29:22.865Z,41.63
2023-05-09T04:30:22.871Z,41.65
2023-05-09T04:31:22.975Z,41.62
2023-05-09T04:32:22.972Z,41.61
2023-05-09T04:33:23.058Z,41.63
2023-05-09T04:34:23.092Z,41.62
2023-05-09T04:35:23.317Z,41.61
2023-05-09T04:36:23.230Z,41.63
2023-05-09T04:37:23.365Z,41.63
2023-05-09T04:38:23.323Z,41.60
2023-05-09T04:39:23.405Z,41.64
2023-05-09T04:40:25.428Z,41.63
2023-05-09T04:41:23.435Z,41.61
2023-05-09T04:42:23.431Z,41.61
2023-05-09T04:43:23.387Z,41.65
2023-05-09T04:44:23.412Z,41.62
2023-05-09T04:45:23.394Z,41.61
2023-05-09T04:46:25.560Z,41.62
2023-05-09T04:47:23.440Z,41.62
2023-05-09T04:48:23.394Z,41.64
2023-05-09T04:49:23.401Z,41.69
2023-05-09T04:50:23.476Z,41.70
2023-05-09T04:51:23.512Z,41.65
2023-05-09T04:52:23.611Z,41.66
2023-05-09T04:53:23.713Z,41.74
2023-05-09T04:54:23.679Z,41.70
2023-05-09T04:55:23.750Z,41.68
2023-05-09T04:56:23.804Z,41.71
2023-05-09T04:57:23.858Z,41.63
2023-05-09T04:58:23.881Z,41.71
2023-05-09T04:59:23.897Z,41.67
2023-05-09T05:00:23.898Z,41.66
2023-05-09T05:01:23.995Z,41.70
2023-05-09T05:02:24.032Z,41.66
2023-05-09T05:03:24.083Z,41.68
2023-05-09T05:04:24.187Z,41.71
2023-05-09T05:05:25.414Z,41.70
2023-05-09T05:06:24.250Z,41.67
2023-05-09T05:07:24.310Z,41.68
2023-05-09T05:08:24.300Z,41.70
2023-05-09T05:09:24.553Z,41.67
2023-05-09T05:10:24.411Z,41.64
2023-05-09T05:11:24.397Z,41.69
2023-05-09T05:12:24.441Z,41.69
2023-05-09T05:13:24.493Z,41.68
2023-05-09T05:14:24.482Z,41.70
2023-05-09T05:15:24.519Z,41.70
2023-05-09T05:16:24.562Z,41.69
2023-05-09T05:17:24.617Z,41.70
2023-05-09T05:18:24.629Z,41.70
2023-05-09T05:19:24.645Z,41.70
2023-05-09T05:20:24.682Z,41.70
2023-05-09T05:21:24.723Z,41.70
2023-05-09T05:22:24.760Z,41.68
2023-05-09T05:23:24.802Z,41.71
2023-05-09T05:24:24.878Z,41.69
2023-05-09T05:25:24.983Z,41.69
2023-05-09T05:26:24.913Z,41.71
2023-05-09T05:27:25.000Z,41.72
2023-05-09T05:28:25.052Z,41.72
2023-05-09T05:29:25.086Z,41.71
2023-05-09T05:30:25.116Z,41.71
2023-05-09T05:31:25.243Z,41.70
2023-05-09T05:32:25.284Z,41.72
2023-05-09T05:33:25.257Z,41.74
2023-05-09T05:34:25.255Z,41.73
2023-05-09T05:35:25.254Z,41.83
2023-05-09T05:36:25.241Z,42.01
2023-05-09T05:37:25.267Z,41.98
2023-05-09T05:38:25.262Z,42.00
2023-05-09T05:39:25.246Z,42.00
2023-05-09T05:40:25.287Z,42.02
2023-05-09T05:41:25.413Z,42.15
2023-05-09T05:42:25.366Z,42.54
2023-05-09T05:43:25.368Z,42.52
2023-05-09T05:44:25.414Z,42.46
2023-05-09T05:45:25.448Z,42.46
2023-05-09T05:46:25.535Z,42.65
2023-05-09T05:47:25.563Z,42.76
2023-05-09T05:48:25.611Z,42.74
2023-05-09T05:49:25.669Z,42.93
2023-05-09T05:50:25.713Z,43.04
2023-05-09T05:51:25.777Z,43.16
2023-05-09T05:52:25.797Z,43.56
2023-05-09T05:53:26.297Z,43.34
2023-05-09T05:54:25.922Z,43.32
2023-05-09T05:55:25.963Z,43.45
2023-05-09T05:56:26.050Z,43.89
2023-05-09T05:57:26.189Z,44.45
2023-05-09T05:58:26.142Z,44.15
2023-05-09T05:59:26.208Z,43.91
2023-05-09T06:00:26.336Z,43.97
2023-05-09T06:01:26.339Z,44.23
2023-05-09T06:02:26.446Z,44.51
2023-05-09T06:03:26.456Z,44.71
2023-05-09T06:04:26.435Z,44.85
2023-05-09T06:05:26.450Z,45.08
2023-05-09T06:06:26.479Z,45.28
2023-05-09T06:07:26.494Z,45.32
2023-05-09T06:08:26.535Z,45.45
2023-05-09T06:09:26.804Z,45.36
2023-05-09T06:10:26.578Z,45.45
2023-05-09T06:11:26.579Z,45.67
2023-05-09T06:12:27.905Z,45.20
2023-05-09T06:13:26.670Z,45.31
2023-05-09T06:14:26.786Z,45.12
2023-05-09T06:15:26.644Z,44.82
2023-05-09T06:16:26.660Z,44.95
2023-05-09T06:17:26.725Z,45.35
2023-05-09T06:18:26.731Z,44.99
2023-05-09T06:19:26.718Z,44.97
2023-05-09T06:20:26.744Z,45.03
2023-05-09T06:21:26.754Z,45.10
2023-05-09T06:22:26.824Z,45.05
2023-05-09T06:23:26.853Z,45.30
2023-05-09T06:24:35.140Z,45.32
2023-05-09T06:25:27.868Z,45.15
2023-05-09T06:26:26.875Z,45.25
2023-05-09T06:27:26.865Z,45.45
2023-05-09T06:28:26.876Z,45.53
2023-05-09T06:29:26.938Z,45.32
2023-05-09T06:30:27.288Z,45.28
2023-05-09T06:31:26.873Z,45.56
2023-05-09T06:32:26.872Z,45.48
2023-05-09T06:33:26.801Z,45.59
2023-05-09T06:34:26.790Z,45.79
2023-05-09T06:35:26.790Z,45.96
2023-05-09T06:36:26.851Z,45.65
2023-05-09T06:37:26.930Z,45.83
2023-05-09T06:38:26.901Z,45.81
2023-05-09T06:39:27.289Z,46.23
2023-05-09T06:40:27.077Z,45.72
2023-05-09T06:41:27.059Z,45.75
2023-05-09T06:42:27.117Z,45.72
2023-05-09T06:43:28.450Z,45.76
2023-05-09T06:44:27.205Z,45.76
2023-05-09T06:45:27.390Z,46.18
2023-05-09T06:46:27.346Z,45.22
2023-05-09T06:47:27.346Z,45.26
2023-05-09T06:48:27.327Z,44.99
2023-05-09T06:49:27.802Z,44.93
2023-05-09T06:50:27.352Z,44.92
2023-05-09T06:51:27.352Z,45.11
2023-05-09T06:52:27.418Z,45.35
2023-05-09T06:53:27.437Z,45.00
2023-05-09T06:54:27.504Z,45.12
2023-05-09T06:55:27.465Z,45.28
2023-05-09T06:56:27.493Z,45.17
2023-05-09T06:57:27.507Z,44.84
2023-05-09T06:58:27.500Z,44.94
2023-05-09T06:59:27.567Z,44.98
2023-05-09T07:00:27.595Z,45.27
2023-05-09T07:01:27.783Z,45.39
2023-05-09T07:02:27.732Z,45.53
2023-05-09T07:03:27.735Z,45.54
2023-05-09T07:04:27.776Z,45.67
2023-05-09T07:05:27.842Z,45.70
2023-05-09T07:06:27.822Z,45.45
2023-05-09T07:07:27.818Z,45.59
2023-05-09T07:08:27.813Z,45.18
2023-05-09T07:09:27.877Z,45.08
2023-05-09T07:10:27.954Z,44.82
2023-05-09T07:11:27.874Z,44.74
2023-05-09T07:12:27.904Z,44.88
2023-05-09T07:13:27.963Z,44.71
2023-05-09T07:14:27.936Z,44.78
2023-05-09T07:15:37.228Z,44.82
2023-05-09T07:16:29.007Z,44.80
2023-05-09T07:17:28.055Z,44.70
2023-05-09T07:18:27.948Z,44.76
2023-05-09T07:19:27.942Z,44.65
2023-05-09T07:20:27.915Z,44.60
2023-05-09T07:21:28.005Z,44.57
2023-05-09T07:22:30.672Z,44.67
2023-05-09T07:23:27.914Z,44.52
2023-05-09T07:24:27.933Z,44.58
2023-05-09T07:25:27.903Z,44.55
2023-05-09T07:26:27.876Z,44.75
2023-05-09T07:27:27.933Z,44.96
2023-05-09T07:28:27.878Z,44.90
2023-05-09T07:29:27.914Z,44.72
2023-05-09T07:30:27.853Z,44.94
2023-05-09T07:31:27.906Z,44.70
2023-05-09T07:32:27.888Z,44.72
2023-05-09T07:33:27.939Z,44.90
2023-05-09T07:34:27.846Z,44.58
2023-05-09T07:35:27.840Z,44.89
2023-05-09T07:36:27.798Z,45.13
2023-05-09T07:37:27.805Z,44.99
2023-05-09T07:38:27.815Z,45.22
2023-05-09T07:39:27.827Z,44.73
2023-05-09T07:40:27.808Z,44.32
2023-05-09T07:41:27.789Z,44.26
2023-05-09T07:42:27.835Z,44.64
2023-05-09T07:43:27.769Z,44.34
2023-05-09T07:44:27.823Z,44.36
2023-05-09T07:45:27.821Z,44.62
2023-05-09T07:46:27.880Z,44.82
2023-05-09T07:47:27.795Z,44.95
2023-05-09T07:48:27.745Z,44.66
2023-05-09T07:49:27.861Z,44.59
2023-05-09T07:50:27.744Z,44.74
2023-05-09T07:51:27.725Z,45.10
2023-05-09T07:52:27.726Z,45.26
2023-05-09T07:53:27.714Z,45.25
2023-05-09T07:54:27.698Z,45.51
2023-05-09T07:55:27.711Z,45.49
2023-05-09T07:56:27.725Z,45.36
2023-05-09T07:57:27.696Z,45.32
2023-05-09T07:58:27.716Z,45.09
2023-05-09T07:59:27.675Z,45.04
2023-05-09T08:00:27.652Z,44.96
2023-05-09T08:01:27.637Z,44.72
2023-05-09T08:02:27.777Z,44.62
2023-05-09T08:03:27.801Z,44.58
2023-05-09T08:04:27.692Z,44.45
2023-05-09T08:05:27.718Z,44.50
2023-05-09T08:06:27.627Z,44.24
2023-05-09T08:07:27.601Z,44.29
2023-05-09T08:08:27.634Z,44.23
2023-05-09T08:09:27.607Z,44.37
2023-05-09T08:10:27.597Z,44.34
2023-05-09T08:11:27.585Z,44.27
2023-05-09T08:12:27.564Z,44.23
2023-05-09T08:13:27.643Z,44.19
2023-05-09T08:14:27.607Z,44.23
2023-05-09T08:15:27.646Z,44.17
2023-05-09T08:16:27.737Z,44.24
2023-05-09T08:17:27.821Z,44.34
2023-05-09T08:18:27.833Z,44.14
2023-05-09T08:19:27.891Z,44.17
2023-05-09T08:20:27.932Z,44.32
2023-05-09T08:21:28.056Z,44.20
2023-05-09T08:22:28.006Z,44.38
2023-05-09T08:23:28.076Z,44.29
2023-05-09T08:24:28.097Z,44.07
2023-05-09T08:25:28.103Z,44.16
2023-05-09T08:26:28.129Z,43.87
2023-05-09T08:27:28.159Z,44.11
2023-05-09T08:28:28.174Z,44.12
2023-05-09T08:29:28.217Z,44.07
2023-05-09T08:30:28.248Z,44.08
2023-05-09T08:31:28.289Z,44.04
2023-05-09T08:32:28.316Z,44.26
